Time;durP1;ratioP1;P1;durP2;ratioP2;P2;SDS_P1;SDS_P2;PMS_P1;PMS_P2;Temp;Humidity;BMP_temperature;BMP_pressure;BME280_temperature;BME280_humidity;BME280_pressure;Samples;Min_cycle;Max_cycle;Signal;HPM_P1;HPM_P2
2022/03/08 00:00:23;;;;;;;;;46.67;37.00;;;;;2.27;100.00;101415.31;5077802;28;44942;-87
2022/03/08 00:02:49;;;;;;;;;47.33;37.00;;;;;2.25;100.00;101417.09;5075643;27;46914;-87
2022/03/08 00:05:15;;;;;;;;;38.67;37.00;;;;;2.21;100.00;101418.03;5071664;28;44781;-87
2022/03/08 00:07:41;;;;;;;;;54.67;41.67;;;;;2.18;100.00;101415.50;5067322;28;44754;-87
2022/03/08 00:10:08;;;;;;;;;57.00;44.00;;;;;2.15;100.00;101404.22;5070193;28;44721;-85
2022/03/08 00:12:34;;;;;;;;;42.67;34.00;;;;;2.12;100.00;101404.28;5065810;28;45244;-87
2022/03/08 00:15:00;;;;;;;;;41.00;34.67;;;;;2.12;100.00;101399.03;5066803;28;44827;-86
2022/03/08 00:17:25;;;;;;;;;45.00;38.67;;;;;2.11;100.00;101402.56;5069655;28;44801;-87
2022/03/08 00:19:51;;;;;;;;;48.33;39.00;;;;;2.10;100.00;101401.69;5067697;28;44817;-86
2022/03/08 00:22:16;;;;;;;;;57.33;37.67;;;;;2.09;100.00;101399.97;5061356;28;45033;-85
2022/03/08 00:24:42;;;;;;;;;49.00;40.67;;;;;2.09;100.00;101392.13;5061023;28;45400;-85
2022/03/08 00:27:08;;;;;;;;;47.00;38.33;;;;;2.06;100.00;101398.25;5069240;28;44737;-86
2022/03/08 00:29:33;;;;;;;;;57.00;38.67;;;;;2.07;100.00;101396.50;5073848;28;44946;-87
2022/03/08 00:31:59;;;;;;;;;55.67;43.67;;;;;2.06;100.00;101398.25;5081476;27;45544;-86
2022/03/08 00:34:25;;;;;;;;;56.67;42.67;;;;;2.04;100.00;101401.84;5061578;28;45188;-87
2022/03/08 00:36:50;;;;;;;;;45.00;40.33;;;;;2.03;100.00;101400.09;5062161;28;44791;-85
2022/03/08 00:39:16;;;;;;;;;58.00;40.67;;;;;2.00;100.00;101395.78;5060357;28;44944;-86
2022/03/08 00:41:42;;;;;;;;;47.67;37.67;;;;;1.99;100.00;101399.31;5061936;28;45149;-87
2022/03/08 00:44:07;;;;;;;;;50.33;41.00;;;;;1.98;100.00;101401.94;5061466;28;44703;-86
2022/03/08 00:46:33;;;;;;;;;48.00;40.33;;;;;1.95;100.00;101400.25;5060388;28;45316;-86
2022/03/08 00:48:58;;;;;;;;;45.33;39.33;;;;;1.92;100.00;101402.94;5060827;27;45307;-85
2022/03/08 00:51:24;;;;;;;;;49.67;40.33;;;;;1.91;100.00;101392.50;5059322;28;45399;-86
2022/03/08 00:53:50;;;;;;;;;55.67;43.00;;;;;1.90;100.00;101393.41;5059624;28;44824;-85
2022/03/08 00:56:16;;;;;;;;;59.33;42.00;;;;;1.86;100.00;101392.59;5068086;28;44710;-85
2022/03/08 00:58:41;;;;;;;;;56.67;42.00;;;;;1.84;100.00;101388.25;5060939;28;44813;-85
2022/03/08 01:01:08;;;;;;;;;47.00;39.00;;;;;1.84;100.00;101391.78;5060969;28;45528;-87
2022/03/08 01:03:33;;;;;;;;;57.00;42.67;;;;;1.85;100.00;101390.00;5056552;28;44791;-86
2022/03/08 01:05:59;;;;;;;;;53.67;37.00;;;;;1.83;100.00;101386.53;5059803;28;44873;-86
2022/03/08 01:08:25;;;;;;;;;51.67;40.67;;;;;1.81;100.00;101394.44;5061479;27;45023;-85
2022/03/08 01:10:50;;;;;;;;;47.00;38.00;;;;;1.78;100.00;101392.72;5079270;28;47066;-85
2022/03/08 01:13:16;;;;;;;;;57.33;43.33;;;;;1.74;100.00;101379.72;5063953;28;44623;-86
2022/03/08 01:15:41;;;;;;;;;42.33;39.00;;;;;1.74;100.00;101384.97;5064850;28;44674;-87
2022/03/08 01:18:07;;;;;;;;;49.00;38.33;;;;;1.71;100.00;101377.19;5072076;28;44836;-85
2022/03/08 01:20:32;;;;;;;;;58.00;43.67;;;;;1.69;100.00;101379.84;5071682;28;45076;-85
2022/03/08 01:22:58;;;;;;;;;49.00;36.00;;;;;1.70;100.00;101370.22;5082528;28;44721;-85
2022/03/08 01:25:24;;;;;;;;;48.67;43.00;;;;;1.68;100.00;101375.47;5065607;28;44783;-85
2022/03/08 01:27:50;;;;;;;;;50.33;41.33;;;;;1.68;100.00;101374.63;5059433;28;45046;-86
2022/03/08 01:30:17;;;;;;;;;54.33;37.67;;;;;1.64;100.00;101378.19;5059144;28;45319;-86
2022/03/08 01:32:43;;;;;;;;;50.67;40.67;;;;;1.63;100.00;101384.31;5075044;27;44805;-85
2022/03/08 01:35:09;;;;;;;;;56.67;42.33;;;;;1.61;100.00;101367.78;5060594;28;44933;-87
2022/03/08 01:37:35;;;;;;;;;50.00;40.67;;;;;1.58;100.00;101371.31;5076623;27;44863;-85
2022/03/08 01:40:03;;;;;;;;;64.33;45.33;;;;;1.57;100.00;101381.84;5062795;28;45292;-86
2022/03/08 01:42:28;;;;;;;;;51.67;42.67;;;;;1.56;100.00;101377.50;5061077;28;44689;-85
2022/03/08 01:44:54;;;;;;;;;44.33;39.67;;;;;1.53;100.00;101371.41;5063502;28;45010;-85
2022/03/08 01:47:22;;;;;;;;;57.00;41.00;;;;;1.50;100.00;101374.09;5066159;28;44837;-86
2022/03/08 01:49:49;;;;;;;;;53.67;39.67;;;;;1.50;100.00;101373.25;5063595;28;44964;-87
2022/03/08 01:52:16;;;;;;;;;57.00;41.00;;;;;1.46;100.00;101368.94;5081100;27;45258;-87
2022/03/08 01:54:43;;;;;;;;;49.33;39.67;;;;;1.42;100.00;101362.91;5105386;27;44647;-86
2022/03/08 01:57:09;;;;;;;;;49.33;42.67;;;;;1.41;100.00;101369.03;5100638;27;44838;-84
2022/03/08 01:59:35;;;;;;;;;48.33;40.33;;;;;1.42;100.00;101368.13;5100624;27;45370;-84
2022/03/08 02:02:01;;;;;;;;;44.00;35.33;;;;;1.41;100.00;101362.94;5099377;27;45398;-85
2022/03/08 02:04:27;;;;;;;;;56.33;41.67;;;;;1.39;100.00;101357.72;5099659;27;44729;-84
2022/03/08 02:06:53;;;;;;;;;48.33;42.00;;;;;1.38;100.00;101360.38;5100161;27;44809;-83
2022/03/08 02:09:18;;;;;;;;;52.00;45.00;;;;;1.35;100.00;101361.28;5104417;27;44894;-84
2022/03/08 02:11:44;;;;;;;;;57.67;44.67;;;;;1.32;100.00;101360.50;5103254;27;45381;-83
2022/03/08 02:14:10;;;;;;;;;56.00;44.33;;;;;1.31;100.00;101364.00;5103583;27;45408;-84
2022/03/08 02:16:35;;;;;;;;;43.00;41.33;;;;;1.28;100.00;101364.91;5103094;27;44737;-84
2022/03/08 02:19:01;;;;;;;;;51.67;42.67;;;;;1.27;100.00;101363.19;5103887;27;45009;-84
2022/03/08 02:21:28;;;;;;;;;61.67;43.00;;;;;1.25;100.00;101359.72;5107469;27;44708;-85
2022/03/08 02:23:53;;;;;;;;;38.00;28.33;;;;;1.23;100.00;101357.16;5103591;27;44887;-84
2022/03/08 02:26:22;;;;;;;;;55.33;43.00;;;;;1.22;100.00;101346.72;5100628;27;45608;-84
2022/03/08 02:28:48;;;;;;;;;56.00;42.67;;;;;1.19;100.00;101347.63;5101295;27;45325;-83
2022/03/08 02:31:17;;;;;;;;;57.67;44.67;;;;;1.19;100.00;101338.91;5102478;27;45617;-84
2022/03/08 02:33:43;;;;;;;;;55.00;41.67;;;;;1.18;100.00;101338.06;5100652;27;44712;-84
2022/03/08 02:36:08;;;;;;;;;48.67;41.67;;;;;1.18;100.00;101337.19;5100021;27;44842;-84
2022/03/08 02:38:33;;;;;;;;;57.33;43.67;;;;;1.17;100.00;101333.72;5099833;27;47309;-83
2022/03/08 02:40:59;;;;;;;;;58.67;42.00;;;;;1.17;100.00;101349.41;5101855;27;45426;-85
2022/03/08 02:43:24;;;;;;;;;47.67;37.00;;;;;1.15;100.00;101343.34;5102319;27;45386;-85
2022/03/08 02:45:50;;;;;;;;;47.67;42.00;;;;;1.12;100.00;101335.56;5102739;27;44825;-85
2022/03/08 02:48:15;;;;;;;;;52.33;41.67;;;;;1.12;100.00;101329.47;5113318;27;46377;-84
2022/03/08 02:50:41;;;;;;;;;50.00;41.67;;;;;1.10;100.00;101326.84;5115721;27;44780;-84
2022/03/08 02:53:06;;;;;;;;;51.33;40.33;;;;;1.10;100.00;101321.63;5098704;27;45267;-84
2022/03/08 02:55:34;;;;;;;;;56.00;38.00;;;;;1.06;100.00;101321.72;5085350;27;45211;-86
2022/03/08 02:58:01;;;;;;;;;47.67;41.33;;;;;1.04;100.00;101321.75;5080840;27;45370;-85
2022/03/08 03:00:28;;;;;;;;;64.00;48.67;;;;;1.02;100.00;101318.31;5080332;28;45326;-84
2022/03/08 03:02:53;;;;;;;;;64.00;44.00;;;;;1.00;100.00;101318.31;5082207;27;44767;-85
2022/03/08 03:05:19;;;;;;;;;44.00;38.33;;;;;1.01;100.00;101321.78;5087048;27;44746;-85
2022/03/08 03:07:44;;;;;;;;;58.00;43.33;;;;;1.01;100.00;101317.41;5085970;27;45565;-84
2022/03/08 03:10:12;;;;;;;;;54.33;43.00;;;;;0.99;100.00;101316.59;5082373;28;44752;-84
2022/03/08 03:12:38;;;;;;;;;57.33;44.00;;;;;0.96;100.00;101311.41;5084458;27;45370;-83
2022/03/08 03:15:06;;;;;;;;;64.67;48.33;;;;;0.93;100.00;101308.88;5080512;28;45009;-84
2022/03/08 03:17:32;;;;;;;;;52.67;43.00;;;;;0.92;100.00;101307.16;5078506;28;45492;-83
2022/03/08 03:19:57;;;;;;;;;59.00;41.67;;;;;0.91;100.00;101309.78;5080752;27;45391;-82
2022/03/08 03:22:22;;;;;;;;;48.67;41.33;;;;;0.89;100.00;101306.34;5079833;27;45240;-83
2022/03/08 03:24:48;;;;;;;;;61.00;45.33;;;;;0.88;100.00;101307.22;5080000;27;45454;-84
2022/03/08 03:27:16;;;;;;;;;54.00;39.67;;;;;0.87;100.00;101303.75;5081473;27;45049;-83
2022/03/08 03:29:42;;;;;;;;;46.00;39.67;;;;;0.87;100.00;101292.41;5085341;27;44811;-84
2022/03/08 03:32:07;;;;;;;;;54.67;43.00;;;;;0.83;100.00;101301.22;5079705;28;44823;-84
2022/03/08 03:34:33;;;;;;;;;44.33;33.67;;;;;0.82;100.00;101294.25;5077594;27;45378;-85
2022/03/08 03:36:58;;;;;;;;;60.67;45.00;;;;;0.79;100.00;101297.78;5077006;28;46511;-84
2022/03/08 03:39:24;;;;;;;;;54.67;41.33;;;;;0.80;100.00;101296.03;5077709;27;44765;-85
2022/03/08 03:41:50;;;;;;;;;64.67;44.33;;;;;0.79;100.00;101283.84;5078917;27;44716;-84
2022/03/08 03:44:15;;;;;;;;;55.67;44.33;;;;;0.78;100.00;101288.22;5078827;27;45413;-84
2022/03/08 03:46:41;;;;;;;;;51.00;40.00;;;;;0.79;100.00;101278.63;5078797;27;45349;-85
2022/03/08 03:49:06;;;;;;;;;53.00;41.33;;;;;0.80;100.00;101282.97;5078247;27;45181;-85
2022/03/08 03:51:32;;;;;;;;;50.33;42.00;;;;;0.79;100.00;101283.84;5078756;27;44792;-85
2022/03/08 03:53:57;;;;;;;;;58.33;42.33;;;;;0.79;100.00;101281.25;5093719;27;45394;-85
2022/03/08 03:56:23;;;;;;;;;56.67;44.33;;;;;0.77;100.00;101282.13;5099784;27;45171;-84
2022/03/08 03:58:49;;;;;;;;;57.67;43.33;;;;;0.76;100.00;101283.00;5104577;27;44774;-83
2022/03/08 04:01:15;;;;;;;;;52.33;38.67;;;;;0.75;100.00;101294.34;5107724;27;45426;-84
2022/03/08 04:03:40;;;;;;;;;60.00;46.67;;;;;0.76;100.00;101292.59;5102276;27;44793;-84
2022/03/08 04:06:07;;;;;;;;;46.00;39.33;;;;;0.76;100.00;101288.22;5102145;27;45459;-84
2022/03/08 04:08:35;;;;;;;;;63.67;44.33;;;;;0.75;100.00;101294.34;5100181;27;44847;-84
2022/03/08 04:11:00;;;;;;;;;49.33;39.67;;;;;0.73;100.00;101288.31;5101499;27;44723;-84
2022/03/08 04:13:26;;;;;;;;;52.67;42.00;;;;;0.73;100.00;101290.91;5100907;27;44747;-84
2022/03/08 04:15:52;;;;;;;;;65.00;49.00;;;;;0.71;100.00;101291.81;5100271;27;45104;-85
2022/03/08 04:18:18;;;;;;;;;60.00;44.00;;;;;0.68;100.00;101297.13;5099420;27;45350;-85
2022/03/08 04:20:44;;;;;;;;;62.67;46.33;;;;;0.67;100.00;101298.00;5098456;27;45199;-85
2022/03/08 04:23:10;;;;;;;;;45.00;40.67;;;;;0.65;100.00;101294.56;5097413;27;44899;-84
2022/03/08 04:25:35;;;;;;;;;51.33;43.67;;;;;0.64;100.00;101287.59;5097696;27;47125;-85
2022/03/08 04:28:05;;;;;;;;;46.00;39.33;;;;;0.61;100.00;101292.88;5098976;27;44794;-85
2022/03/08 04:30:31;;;;;;;;;56.33;41.67;;;;;0.59;100.00;101292.91;5099426;27;45440;-82
2022/03/08 04:32:57;;;;;;;;;56.33;45.67;;;;;0.58;100.00;101283.34;5098487;27;44827;-85
2022/03/08 04:35:23;;;;;;;;;66.67;45.33;;;;;0.58;100.00;101290.31;5099446;27;45351;-85
2022/03/08 04:37:49;;;;;;;;;58.33;45.67;;;;;0.57;100.00;101283.34;5099911;27;44806;-85
2022/03/08 04:40:15;;;;;;;;;56.33;42.00;;;;;0.56;100.00;101279.88;5102993;27;44822;-84
2022/03/08 04:42:42;;;;;;;;;50.00;39.67;;;;;0.55;100.00;101280.78;5099129;27;45361;-84
2022/03/08 04:45:09;;;;;;;;;54.00;45.33;;;;;0.52;100.00;101280.81;5099007;27;45433;-85
2022/03/08 04:47:36;;;;;;;;;51.33;41.33;;;;;0.51;100.00;101276.47;5099548;27;45396;-83
2022/03/08 04:50:07;;;;;;;;;60.67;43.00;;;;;0.50;100.00;101283.47;5098882;27;44780;-83
2022/03/08 04:52:33;;;;;;;;;57.33;43.67;;;;;0.50;100.00;101277.38;5105261;27;45289;-85
2022/03/08 04:54:58;;;;;;;;;60.33;46.00;;;;;0.49;100.00;101270.44;5109419;27;44884;-85
2022/03/08 04:57:24;;;;;;;;;62.00;46.67;;;;;0.50;100.00;101275.63;5104595;27;44717;-82
2022/03/08 04:59:49;;;;;;;;;50.67;40.00;;;;;0.50;100.00;101274.75;5102689;27;45326;-84
2022/03/08 05:02:15;;;;;;;;;61.33;47.00;;;;;0.49;100.00;101275.66;5101694;27;44826;-86
2022/03/08 05:04:40;;;;;;;;;47.33;42.00;;;;;0.50;100.00;101277.38;5101593;27;46218;-85
2022/03/08 05:07:05;;;;;;;;;64.00;43.67;;;;;0.51;100.00;101271.25;5102780;27;44717;-86
2022/03/08 05:09:31;;;;;;;;;53.33;43.67;;;;;0.48;100.00;101269.56;5106955;27;44831;-84
2022/03/08 05:11:58;;;;;;;;;56.00;44.33;;;;;0.47;100.00;101264.34;5108982;27;44839;-83
2022/03/08 05:14:23;;;;;;;;;63.00;48.00;;;;;0.46;100.00;101266.09;5107152;27;45371;-84
2022/03/08 05:16:49;;;;;;;;;64.67;45.67;;;;;0.47;100.00;101267.81;5104114;27;44767;-85
2022/03/08 05:19:14;;;;;;;;;57.00;43.33;;;;;0.46;100.00;101268.72;5101802;27;45001;-85
2022/03/08 05:21:40;;;;;;;;;48.00;42.33;;;;;0.45;100.00;101274.84;5103400;27;44886;-85
2022/03/08 05:24:05;;;;;;;;;55.33;42.00;;;;;0.44;100.00;101269.66;5100494;27;44909;-87
2022/03/08 05:26:31;;;;;;;;;59.00;45.67;;;;;0.43;100.00;101275.75;5097822;27;44787;-86
2022/03/08 05:28:56;;;;;;;;;62.67;46.33;;;;;0.44;100.00;101277.50;5099798;27;45286;-84
2022/03/08 05:31:21;;;;;;;;;50.67;42.33;;;;;0.42;100.00;101277.50;5099484;27;44856;-86
2022/03/08 05:33:47;;;;;;;;;58.67;43.00;;;;;0.42;100.00;101276.63;5102570;27;45177;-86
2022/03/08 05:36:12;;;;;;;;;54.67;42.33;;;;;0.42;100.00;101271.41;5100433;27;44784;-86
2022/03/08 05:38:38;;;;;;;;;62.33;47.00;;;;;0.42;100.00;101266.19;5098580;27;44849;-86
2022/03/08 05:41:03;;;;;;;;;63.00;48.00;;;;;0.40;100.00;101262.75;5097948;27;44889;-86
2022/03/08 05:43:29;;;;;;;;;55.00;41.33;;;;;0.40;100.00;101265.34;5104375;27;45410;-87
2022/03/08 05:45:54;;;;;;;;;54.33;43.00;;;;;0.38;100.00;101267.09;5101677;27;44896;-84
2022/03/08 05:48:19;;;;;;;;;62.00;46.67;;;;;0.38;100.00;101267.09;5106466;27;44696;-85
2022/03/08 05:50:45;;;;;;;;;53.67;42.67;;;;;0.36;100.00;101266.28;5107899;27;44915;-85
2022/03/08 05:53:10;;;;;;;;;63.67;48.00;;;;;0.35;100.00;101268.03;5099655;27;46863;-85
2022/03/08 05:55:36;;;;;;;;;49.33;39.00;;;;;0.35;100.00;101269.78;5101860;27;44677;-84
2022/03/08 05:58:01;;;;;;;;;54.67;42.33;;;;;0.34;100.00;101262.81;5102813;27;44806;-86
2022/03/08 06:00:27;;;;;;;;;66.00;49.67;;;;;0.34;100.00;101266.31;5099933;27;44974;-87
2022/03/08 06:02:52;;;;;;;;;58.33;44.33;;;;;0.36;100.00;101271.50;5096403;27;45330;-86
2022/03/08 06:05:18;;;;;;;;;64.50;45.50;;;;;0.35;100.00;101273.25;5100015;27;45251;-87
2022/03/08 06:07:43;;;;;;;;;64.67;47.00;;;;;0.34;100.00;101270.66;5101520;27;45005;-86
2022/03/08 06:10:09;;;;;;;;;57.00;44.67;;;;;0.35;100.00;101278.50;5108118;27;44827;-85
2022/03/08 06:12:36;;;;;;;;;54.67;42.00;;;;;0.33;100.00;101275.03;5109947;27;45098;-86
2022/03/08 06:15:01;;;;;;;;;58.00;46.00;;;;;0.34;100.00;101284.63;5110806;27;44807;-86
2022/03/08 06:17:27;;;;;;;;;63.00;49.00;;;;;0.33;100.00;101284.63;5108285;27;44837;-85
2022/03/08 06:19:52;;;;;;;;;56.00;45.33;;;;;0.34;100.00;101287.22;5105949;27;44776;-87
2022/03/08 06:22:18;;;;;;;;;47.33;43.00;;;;;0.34;100.00;101282.00;5107581;27;45112;-87
2022/03/08 06:24:44;;;;;;;;;61.00;44.67;;;;;0.36;100.00;101284.56;5108324;27;44752;-87
2022/03/08 06:27:09;;;;;;;;;66.00;50.33;;;;;0.39;100.00;101287.16;5108512;27;44824;-87
2022/03/08 06:29:35;;;;;;;;;50.33;41.33;;;;;0.40;100.00;101279.28;5109312;27;44907;-86
2022/03/08 06:32:00;;;;;;;;;58.67;46.33;;;;;0.43;100.00;101288.81;5107491;27;45162;-87
2022/03/08 06:34:26;;;;;;;;;64.00;43.33;;;;;0.45;100.00;101294.88;5109396;27;44806;-89
2022/03/08 06:36:51;;;;;;;;;59.33;45.33;;;;;0.48;100.00;101290.47;5109082;27;44708;-86
2022/03/08 06:39:17;;;;;;;;;61.33;43.00;;;;;0.52;100.00;101291.28;5109285;27;44845;-87
2022/03/08 06:41:43;;;;;;;;;62.00;46.00;;;;;0.57;100.00;101292.06;5113169;27;45005;-85
2022/03/08 06:44:09;;;;;;;;;59.00;41.67;;;;;0.61;100.00;101288.50;5109996;27;44682;-88
2022/03/08 06:46:35;;;;;;;;;59.67;48.33;;;;;0.68;100.00;101295.38;5106700;27;44810;-86
2022/03/08 06:49:00;;;;;;;;;62.67;51.33;;;;;0.75;100.00;101288.28;5103656;27;44866;-88
2022/03/08 06:51:26;;;;;;;;;60.00;48.67;;;;;0.82;100.00;101283.78;5106749;27;45369;-87
2022/03/08 06:53:51;;;;;;;;;62.33;44.33;;;;;0.90;100.00;101284.50;5094657;27;45161;-87
2022/03/08 06:56:17;;;;;;;;;64.33;46.33;;;;;0.98;100.00;101291.34;5088559;27;44732;-86
2022/03/08 06:58:42;;;;;;;;;57.33;45.00;;;;;1.07;100.00;101287.69;5087727;28;44857;-86
2022/03/08 07:01:08;;;;;;;;;62.67;45.67;;;;;1.15;100.00;101285.78;5083768;27;45145;-86
2022/03/08 07:03:33;;;;;;;;;66.33;46.67;;;;;1.24;100.00;101287.34;5082627;27;44710;-88
2022/03/08 07:05:59;;;;;;;;;62.00;48.67;;;;;1.33;100.00;101288.94;5081762;28;45425;-88
2022/03/08 07:08:24;;;;;;;;;62.67;46.00;;;;;1.40;100.00;101288.78;5083258;27;44906;-86
2022/03/08 07:10:50;;;;;;;;;56.67;46.67;;;;;1.49;100.00;101287.72;5083937;28;45379;-87
2022/03/08 07:13:15;;;;;;;;;59.67;45.33;;;;;1.58;100.00;101279.66;5090294;27;44793;-87
2022/03/08 07:15:41;;;;;;;;;63.33;49.00;;;;;1.67;100.00;101278.63;5090242;28;44753;-88
2022/03/08 07:18:06;;;;;;;;;60.67;51.67;;;;;1.75;100.00;101281.94;5091164;27;44812;-88
2022/03/08 07:20:32;;;;;;;;;64.67;48.00;;;;;1.83;100.00;101287.84;5084489;27;46611;-87
2022/03/08 07:22:57;;;;;;;;;63.00;44.67;;;;;1.95;100.00;101284.97;5086988;27;44688;-87
2022/03/08 07:25:23;;;;;;;;;66.00;47.67;;;;;2.05;100.00;101289.09;5085887;27;45158;-86
2022/03/08 07:27:48;;;;;;;;;58.33;47.00;;;;;2.17;100.00;101292.34;5085079;27;44742;-87
2022/03/08 07:30:14;;;;;;;;;65.33;47.00;;;;;2.29;100.00;101289.44;5084872;27;45440;-86
2022/03/08 07:32:39;;;;;;;;;71.00;46.67;;;;;2.41;100.00;101302.25;5087481;28;44654;-85
2022/03/08 07:35:06;;;;;;;;;57.00;47.00;;;;;2.51;100.00;101293.25;5084380;27;45105;-86
2022/03/08 07:37:35;;;;;;;;;59.33;46.67;;;;;2.58;100.00;101299.22;5087185;27;44955;-87
2022/03/08 07:40:02;;;;;;;;;61.67;45.00;;;;;2.67;100.00;101308.63;5085547;27;46789;-86
2022/03/08 07:42:27;;;;;;;;;63.00;48.33;;;;;2.76;100.00;101319.75;5081369;27;45276;-86
2022/03/08 07:44:53;;;;;;;;;60.33;45.67;;;;;2.87;100.00;101308.13;5078383;28;44985;-88
2022/03/08 07:47:19;;;;;;;;;60.33;45.33;;;;;3.00;100.00;101320.03;5081643;28;44947;-87
2022/03/08 07:49:44;;;;;;;;;63.33;46.67;;;;;3.06;100.00;101312.84;5078495;28;45460;-86
2022/03/08 07:52:10;;;;;;;;;62.33;47.67;;;;;3.15;100.00;101313.50;5081604;28;44863;-87
2022/03/08 07:54:37;;;;;;;;;61.67;46.67;;;;;3.21;100.00;101315.94;5106463;27;45218;-86
2022/03/08 07:57:02;;;;;;;;;57.67;47.67;;;;;3.24;100.00;101318.47;5109972;27;45486;-87
2022/03/08 07:59:29;;;;;;;;;62.00;45.33;;;;;3.30;100.00;101313.94;5103631;27;45362;-86
2022/03/08 08:01:54;;;;;;;;;56.33;43.00;;;;;3.42;100.00;101317.13;5102437;27;44807;-88
2022/03/08 08:04:20;;;;;;;;;67.33;50.33;;;;;3.50;100.00;101313.38;5103575;27;44811;-86
2022/03/08 08:06:45;;;;;;;;;66.67;51.00;;;;;3.60;100.00;101312.19;5103220;27;44812;-89
2022/03/08 08:09:12;;;;;;;;;58.00;46.33;;;;;3.68;100.00;101311.13;5099276;27;45354;-88
2022/03/08 08:11:38;;;;;;;;;60.33;47.67;;;;;3.80;100.00;101305.50;5100985;27;45369;-87
2022/03/08 08:14:07;;;;;;;;;58.00;45.67;;;;;3.91;100.00;101307.81;5094405;27;44790;-88
2022/03/08 08:16:32;;;;;;;;;60.33;46.00;;;;;4.02;100.00;101314.47;5063014;28;45324;-87
2022/03/08 08:19:01;;;;;;;;;59.00;48.00;;;;;4.09;100.00;101316.00;5058153;28;46705;-88
2022/03/08 08:21:28;;;;;;;;;60.00;47.00;;;;;4.15;100.00;101317.56;5060997;28;44650;-88
2022/03/08 08:23:53;;;;;;;;;57.33;46.33;;;;;4.25;100.00;101318.13;5064951;28;44657;-86
2022/03/08 08:26:19;;;;;;;;;60.33;46.67;;;;;4.29;100.00;101311.88;5069393;28;44793;-88
2022/03/08 08:28:45;;;;;;;;;69.00;50.00;;;;;4.35;100.00;101317.81;5071541;28;45041;-87
2022/03/08 08:31:10;;;;;;;;;62.00;45.00;;;;;4.41;100.00;101319.41;5068096;28;44802;-87
2022/03/08 08:33:36;;;;;;;;;65.33;48.00;;;;;4.49;100.00;101322.63;5063277;28;44765;-88
2022/03/08 08:36:03;;;;;;;;;66.67;51.00;;;;;4.54;100.00;101314.56;5061155;28;45257;-88
2022/03/08 08:38:28;;;;;;;;;58.00;46.00;;;;;4.63;100.00;101323.03;5085599;27;45748;-87
2022/03/08 08:40:55;;;;;;;;;59.00;46.33;;;;;4.71;100.00;101325.41;5084117;27;44744;-89
2022/03/08 08:43:21;;;;;;;;;60.67;47.00;;;;;4.76;100.00;101328.75;5078028;27;45359;-89
2022/03/08 08:45:51;;;;;;;;;59.33;50.00;;;;;4.82;100.00;101325.06;5066864;27;44804;-87
2022/03/08 08:48:17;;;;;;;;;56.00;41.67;;;;;4.92;100.00;101334.34;5077934;28;45367;-86
2022/03/08 08:50:42;;;;;;;;;60.00;46.33;;;;;4.95;100.00;101336.91;5077170;27;44779;-85
2022/03/08 08:53:08;;;;;;;;;60.33;49.67;;;;;5.02;100.00;101327.88;5077282;27;44769;-86
2022/03/08 08:55:35;;;;;;;;;59.67;47.00;;;;;5.13;100.00;101328.38;5076365;27;44812;-86
2022/03/08 08:58:01;;;;;;;;;60.33;48.67;;;;;5.20;100.00;101329.00;5076543;27;45514;-86
2022/03/08 09:00:26;;;;;;;;;58.67;43.00;;;;;5.28;100.00;101334.03;5077632;27;45361;-85
2022/03/08 09:02:52;;;;;;;;;54.33;45.67;;;;;5.36;100.00;101324.03;5078977;27;45532;-85
2022/03/08 09:05:17;;;;;;;;;59.67;47.00;;;;;5.46;100.00;101322.78;5076734;27;44835;-85
2022/03/08 09:07:43;;;;;;;;;60.00;45.33;;;;;5.52;100.00;101325.22;5080603;27;45469;-84
2022/03/08 09:10:08;;;;;;;;;60.67;45.67;;;;;5.65;100.00;101323.84;5077586;28;45236;-85
2022/03/08 09:12:34;;;;;;;;;57.00;42.00;;;;;5.77;100.00;101324.31;5079268;27;45351;-85
2022/03/08 09:15:02;;;;;;;;;58.67;45.67;;;;;5.83;100.00;101318.81;5086648;27;44789;-85
2022/03/08 09:17:27;;;;;;;;;54.00;42.33;;;;;5.92;99.47;101322.00;5077563;28;45676;-85
2022/03/08 09:19:53;;;;;;;;;56.33;43.33;;;;;5.97;99.64;101321.81;5075445;28;44781;-84
2022/03/08 09:22:18;;;;;;;;;53.67;43.33;;;;;6.07;99.52;101319.69;5070524;28;44705;-87
2022/03/08 09:24:43;;;;;;;;;62.33;46.67;;;;;6.14;99.44;101313.22;5075885;28;44813;-88
2022/03/08 09:27:09;;;;;;;;;63.00;46.00;;;;;6.18;98.79;101318.31;5067265;28;45146;-89
2022/03/08 09:29:34;;;;;;;;;59.33;45.67;;;;;6.28;99.08;101318.81;5075541;28;44717;-89
2022/03/08 09:32:01;;;;;;;;;60.00;47.00;;;;;6.38;98.76;101311.41;5078290;28;44844;-88
2022/03/08 09:34:26;;;;;;;;;64.33;49.00;;;;;6.53;98.33;101302.03;5075634;28;44757;-87
2022/03/08 09:36:52;;;;;;;;;67.33;49.33;;;;;6.61;97.34;101308.69;5067815;28;45345;-87
2022/03/08 09:39:17;;;;;;;;;67.67;47.67;;;;;6.72;97.89;101297.72;5062777;28;45226;-88
2022/03/08 09:41:43;;;;;;;;;56.33;43.00;;;;;6.81;97.61;101305.22;5060598;28;45186;-89
2022/03/08 09:44:13;;;;;;;;;59.33;47.67;;;;;6.92;96.80;101308.28;5063950;28;44661;-89
2022/03/08 09:46:40;;;;;;;;;67.00;49.00;;;;;6.97;96.85;101301.94;5062711;28;45436;-88
2022/03/08 09:49:05;;;;;;;;;66.00;50.67;;;;;7.05;96.47;101302.44;5063820;28;44730;-89
2022/03/08 09:51:32;;;;;;;;;65.00;47.00;;;;;7.11;96.70;101308.34;5062405;28;44752;-87
2022/03/08 09:53:57;;;;;;;;;58.33;47.67;;;;;7.19;96.76;101300.06;5099275;27;44962;-88
2022/03/08 09:56:23;;;;;;;;;59.33;46.67;;;;;7.25;96.20;101301.56;5111009;27;44970;-87
2022/03/08 09:58:48;;;;;;;;;60.67;49.33;;;;;7.33;95.75;101296.81;5106928;27;44713;-87
2022/03/08 10:01:14;;;;;;;;;60.67;47.00;;;;;7.35;95.58;101303.78;5109815;27;45545;-88
2022/03/08 10:03:43;;;;;;;;;59.33;45.33;;;;;7.40;95.44;101298.28;5114650;27;44821;-87
2022/03/08 10:06:10;;;;;;;;;60.67;45.00;;;;;7.47;95.98;101292.63;5106016;27;45482;-87
2022/03/08 10:08:35;;;;;;;;;63.00;49.00;;;;;7.61;95.88;101296.44;5107008;27;45244;-90
2022/03/08 10:11:03;;;;;;;;;64.33;48.67;;;;;7.69;94.18;101287.25;5106821;27;44724;-89
2022/03/08 10:13:34;;;;;;;;;60.67;48.67;;;;;7.71;94.46;101287.16;5106166;27;44811;-88
2022/03/08 10:16:12;;;;;;;;;59.33;45.33;;;;;7.77;95.75;101286.88;5109054;27;46781;-87
2022/03/08 10:18:46;;;;;;;;;64.33;49.00;;;;;7.84;95.38;101283.03;5112612;27;44720;-88
2022/03/08 10:21:35;;;;;;;;;63.33;50.00;;;;;7.93;93.55;101294.97;5104674;27;45342;-89
2022/03/08 10:24:13;;;;;;;;;57.33;47.67;;;;;8.01;93.52;101289.28;5103373;27;45428;-85
2022/03/08 10:27:01;;;;;;;;;63.33;49.00;;;;;8.13;94.09;101280.78;5102703;27;45388;-88
2022/03/08 10:29:31;;;;;;;;;59.67;48.33;;;;;8.18;92.65;101279.63;5106063;27;45381;-88
2022/03/08 10:32:03;;;;;;;;;65.33;48.00;;;;;8.25;93.47;101272.25;5103041;27;44774;-89
2022/03/08 10:34:30;;;;;;;;;63.33;47.33;;;;;8.39;94.01;101272.47;5102004;27;45311;-87
2022/03/08 10:37:02;;;;;;;;;60.67;49.33;;;;;8.47;92.64;101274.75;5100961;27;47180;-88
2022/03/08 10:39:28;;;;;;;;;59.67;47.67;;;;;8.52;92.63;101272.72;5104116;27;45397;-88
2022/03/08 10:41:56;;;;;;;;;61.33;46.33;;;;;8.60;92.41;101274.97;5104845;27;44795;-88
2022/03/08 10:44:31;;;;;;;;;61.67;49.33;;;;;8.73;92.69;101276.06;5101455;27;44843;-89
2022/03/08 10:47:02;;;;;;;;;56.67;43.00;;;;;8.75;92.08;101267.13;5101463;27;45289;-88
2022/03/08 10:49:28;;;;;;;;;63.67;48.67;;;;;8.86;91.18;101269.22;5100501;27;45206;-89
2022/03/08 10:52:05;;;;;;;;;63.00;48.67;;;;;8.88;91.27;101264.69;5099741;27;45405;-89
2022/03/08 10:54:31;;;;;;;;;63.67;49.00;;;;;8.94;91.91;101267.00;5102358;27;45410;-88
2022/03/08 10:56:57;;;;;;;;;67.33;50.67;;;;;9.07;91.15;101263.75;5102401;27;45344;-88
2022/03/08 10:59:23;;;;;;;;;61.67;48.67;;;;;9.17;90.84;101267.63;5104389;27;44791;-85
2022/03/08 11:01:48;;;;;;;;;65.33;49.67;;;;;9.29;90.33;101266.13;5106248;27;44816;-88
2022/03/08 11:04:21;;;;;;;;;60.00;49.00;;;;;9.40;90.52;101261.97;5088882;27;44950;-87